Time;durP1;ratioP1;P1;durP2;ratioP2;P2;SDS_P1;SDS_P2;PMS_P1;PMS_P2;Temp;Humidity;BMP_temperature;BMP_pressure;BME280_temperature;BME280_humidity;BME280_pressure;Samples;Min_cycle;Max_cycle;Signal;HPM_P1;HPM_P2
2021/08/19 00:02:13;;;;;;;46.50;24.90;;;;;;;19.39;86.11;101310.66;5085026;28;20084;-61
2021/08/19 00:04:41;;;;;;;52.75;26.42;;;;;;;19.44;86.54;101310.09;5084734;28;20062;-61
2021/08/19 00:07:07;;;;;;;48.35;23.38;;;;;;;19.62;85.00;101309.59;5091188;28;20044;-61
2021/08/19 00:09:36;;;;;;;49.90;26.00;;;;;;;19.67;84.82;101307.19;5099990;28;20091;-61
2021/08/19 00:12:10;;;;;;;51.65;26.33;;;;;;;19.63;85.17;101311.25;5088910;28;20139;-57
2021/08/19 00:14:37;;;;;;;52.90;26.05;;;;;;;19.67;84.90;101292.03;5092478;28;20114;-60
2021/08/19 00:17:08;;;;;;;49.70;25.65;;;;;;;19.65;84.51;101301.22;5078663;28;20135;-58
2021/08/19 00:19:34;;;;;;;53.70;25.00;;;;;;;19.54;85.30;101294.59;5089917;28;20739;-59
2021/08/19 00:22:02;;;;;;;49.53;26.23;;;;;;;19.80;83.63;101301.97;5084514;28;20646;-61
2021/08/19 00:24:28;;;;;;;53.65;26.25;;;;;;;19.88;82.92;101293.00;5094801;28;20198;-61
2021/08/19 00:26:55;;;;;;;52.67;25.25;;;;;;;19.97;82.79;101299.81;5087164;28;20127;-62
2021/08/19 00:29:22;;;;;;;54.63;26.20;;;;;;;20.17;81.69;101293.75;5096164;28;20130;-61
2021/08/19 00:31:49;;;;;;;48.50;24.65;;;;;;;20.05;81.04;101278.38;5079993;28;20075;-62
2021/08/19 00:34:16;;;;;;;52.08;26.35;;;;;;;19.86;82.84;101287.06;5088505;28;20135;-62
2021/08/19 00:36:43;;;;;;;51.72;25.92;;;;;;;19.72;83.57;101288.84;5085133;28;20140;-62
2021/08/19 00:39:10;;;;;;;48.00;23.88;;;;;;;19.55;84.13;101282.94;5085585;28;20054;-62
2021/08/19 00:41:37;;;;;;;55.05;24.90;;;;;;;19.46;84.62;101284.09;5087132;28;20070;-62
2021/08/19 00:44:05;;;;;;;50.13;26.20;;;;;;;19.56;84.09;101280.09;5085874;28;20403;-62
2021/08/19 00:46:34;;;;;;;53.83;26.20;;;;;;;19.44;84.22;101278.97;5083648;28;20127;-61
2021/08/19 00:49:08;;;;;;;52.65;24.73;;;;;;;19.46;84.00;101281.44;5097142;28;20075;-62
2021/08/19 00:51:37;;;;;;;49.60;23.65;;;;;;;19.50;83.76;101280.88;5089640;28;20131;-62
2021/08/19 00:54:10;;;;;;;52.25;24.52;;;;;;;19.55;83.53;101288.28;5093345;28;20135;-62
2021/08/19 00:56:37;;;;;;;55.40;25.67;;;;;;;19.45;84.42;101280.63;5075926;28;20062;-62
2021/08/19 00:59:11;;;;;;;56.03;26.87;;;;;;;19.62;83.61;101283.81;5084718;28;20059;-62
2021/08/19 01:01:38;;;;;;;56.70;25.38;;;;;;;19.71;83.06;101282.66;5058920;28;20490;-61
2021/08/19 01:04:06;;;;;;;55.13;26.38;;;;;;;19.75;83.23;101275.94;5094694;28;20060;-62
2021/08/19 01:06:35;;;;;;;50.00;25.50;;;;;;;19.69;83.27;101275.88;5083924;28;20449;-59
2021/08/19 01:09:04;;;;;;;53.90;24.98;;;;;;;19.67;83.79;101281.38;5099023;28;20130;-62
2021/08/19 01:11:35;;;;;;;54.42;26.80;;;;;;;19.61;84.41;101274.19;5092335;28;20052;-62
2021/08/19 01:14:03;;;;;;;59.45;27.73;;;;;;;19.56;84.49;101276.59;5080725;28;20125;-60
2021/08/19 01:16:30;;;;;;;57.00;27.27;;;;;;;19.71;84.10;101282.66;5084655;28;20062;-62
2021/08/19 01:18:57;;;;;;;56.07;26.17;;;;;;;19.69;83.61;101279.34;5087607;28;20552;-62
2021/08/19 01:21:23;;;;;;;49.33;23.92;;;;;;;19.63;84.35;101279.31;5088236;28;20363;-62
2021/08/19 01:23:50;;;;;;;55.28;26.45;;;;;;;19.60;84.62;101277.03;5090143;28;20136;-62
2021/08/19 01:26:18;;;;;;;56.42;28.13;;;;;;;19.71;84.47;101277.34;5090488;27;20139;-62
2021/08/19 01:28:47;;;;;;;60.65;28.83;;;;;;;19.77;84.02;101281.06;5094661;28;20143;-62
2021/08/19 01:31:20;;;;;;;55.78;26.30;;;;;;;19.86;84.17;101279.09;5085461;28;20087;-61
2021/08/19 01:33:47;;;;;;;63.13;27.77;;;;;;;19.88;83.89;101282.38;5101037;27;20137;-62
2021/08/19 01:36:15;;;;;;;60.00;26.58;;;;;;;19.35;86.78;101288.13;5088174;28;20139;-61
2021/08/19 01:38:43;;;;;;;68.35;26.80;;;;;;;19.08;88.87;101281.78;5097795;28;20075;-62
2021/08/19 01:41:10;;;;;;;59.25;27.48;;;;;;;18.95;91.14;101279.81;5081781;28;20128;-62
2021/08/19 01:43:41;;;;;;;62.53;30.43;;;;;;;19.00;90.11;101274.75;5096249;28;20130;-61
2021/08/19 01:46:09;;;;;;;58.92;26.63;;;;;;;18.97;90.55;101275.13;5080814;28;20054;-62
2021/08/19 01:48:39;;;;;;;68.05;29.67;;;;;;;18.95;90.92;101270.00;5095294;28;20111;-61
2021/08/19 01:51:06;;;;;;;59.67;28.73;;;;;;;19.07;89.52;101272.97;5093169;28;20130;-62
2021/08/19 01:53:32;;;;;;;68.82;28.90;;;;;;;19.18;89.34;101276.94;5087624;28;20480;-62
2021/08/19 01:55:59;;;;;;;65.20;29.65;;;;;;;19.30;88.41;101269.25;5087925;28;20054;-62
2021/08/19 01:58:26;;;;;;;59.42;27.25;;;;;;;19.45;87.53;101271.84;5090532;28;20087;-62
2021/08/19 02:00:53;;;;;;;66.95;28.50;;;;;;;19.51;86.96;101271.88;5085592;28;20127;-62
2021/08/19 02:03:20;;;;;;;62.45;26.85;;;;;;;19.61;85.88;101271.53;5046451;28;20407;-60
2021/08/19 02:05:48;;;;;;;60.70;26.77;;;;;;;19.70;85.56;101272.22;5085426;28;20075;-61
2021/08/19 02:08:16;;;;;;;70.50;28.58;;;;;;;19.74;85.69;101265.50;5089155;28;20551;-58
2021/08/19 02:10:43;;;;;;;46.92;22.50;;;;;;;19.45;86.97;101271.84;5082765;28;20075;-60
2021/08/19 02:13:14;;;;;;;65.25;27.58;;;;;;;19.28;89.27;101272.09;5093082;28;20079;-57
2021/08/19 02:15:42;;;;;;;65.57;28.83;;;;;;;19.30;89.07;101262.09;5081267;28;20146;-62
2021/08/19 02:18:09;;;;;;;65.00;29.67;;;;;;;19.38;89.51;101270.97;5092188;28;20040;-61
2021/08/19 02:20:35;;;;;;;67.25;30.52;;;;;;;19.37;89.86;101264.81;5076224;28;20057;-62
2021/08/19 02:23:03;;;;;;;67.72;30.23;;;;;;;19.42;89.51;101269.56;5085950;28;20082;-62
2021/08/19 02:25:29;;;;;;;67.03;29.73;;;;;;;19.32;90.54;101261.91;5086410;27;20150;-62
2021/08/19 02:27:57;;;;;;;70.88;30.67;;;;;;;19.35;90.79;101269.50;5093814;27;20056;-62
2021/08/19 02:30:23;;;;;;;73.38;33.83;;;;;;;19.17;92.17;101262.84;5086747;28;20083;-61
2021/08/19 02:32:55;;;;;;;81.10;33.03;;;;;;;19.09;93.89;101260.31;5088682;28;20135;-62
2021/08/19 02:35:23;;;;;;;76.57;32.60;;;;;;;18.98;95.20;101266.16;5092853;27;20043;-62
2021/08/19 02:37:51;;;;;;;89.82;33.40;;;;;;;18.96;95.60;101255.69;5081884;28;20143;-60
2021/08/19 02:40:17;;;;;;;86.35;35.10;;;;;;;18.93;96.11;101253.44;5091454;28;20132;-62
2021/08/19 02:42:44;;;;;;;76.35;33.22;;;;;;;18.87;96.88;101251.50;5088223;28;20055;-61
2021/08/19 02:45:11;;;;;;;79.07;33.78;;;;;;;18.98;96.07;101252.84;5102227;28;20561;-61
2021/08/19 02:47:37;;;;;;;92.70;35.58;;;;;;;18.76;98.10;101247.50;5091409;28;20130;-61
2021/08/19 02:50:04;;;;;;;82.93;33.15;;;;;;;18.74;98.46;101249.53;5071171;28;20429;-61
2021/08/19 02:52:31;;;;;;;88.22;33.72;;;;;;;18.82;97.39;101243.31;5091122;28;20151;-58
2021/08/19 02:54:57;;;;;;;98.60;34.83;;;;;;;18.81;97.99;101235.53;5080445;28;20130;-60
2021/08/19 02:57:24;;;;;;;91.75;33.67;;;;;;;18.81;97.74;101238.19;5095180;28;20104;-60
2021/08/19 02:59:50;;;;;;;86.47;35.60;;;;;;;18.72;98.31;101235.63;5083965;28;20079;-61
2021/08/19 03:02:17;;;;;;;86.15;36.17;;;;;;;18.83;97.64;101236.16;5093755;28;20043;-62
2021/08/19 03:04:43;;;;;;;82.78;33.17;;;;;;;18.90;96.76;101235.19;5085506;28;20043;-61
2021/08/19 03:07:11;;;;;;;91.55;33.75;;;;;;;18.98;96.01;101236.09;5083360;28;20079;-61
2021/08/19 03:09:38;;;;;;;92.00;35.13;;;;;;;19.01;96.44;101235.69;5100567;28;20052;-60
2021/08/19 03:12:05;;;;;;;88.45;35.60;;;;;;;19.14;94.87;101238.47;5087088;28;20146;-61
2021/08/19 03:14:33;;;;;;;84.00;32.23;;;;;;;19.30;93.29;101234.69;5088390;28;20055;-61
2021/08/19 03:16:59;;;;;;;83.93;32.97;;;;;;;19.26;93.38;101236.91;5065770;28;20043;-61
2021/08/19 03:19:27;;;;;;;73.28;31.95;;;;;;;19.46;91.58;101239.69;5083582;28;20052;-62
2021/08/19 03:21:54;;;;;;;84.93;32.43;;;;;;;19.45;91.48;101240.72;5094434;28;20044;-62
2021/08/19 03:24:20;;;;;;;82.90;32.40;;;;;;;19.46;91.27;101238.88;5083468;28;20367;-62
2021/08/19 03:26:47;;;;;;;84.60;32.08;;;;;;;19.41;91.59;101225.34;5098971;27;20134;-61
2021/08/19 03:29:13;;;;;;;91.13;32.90;;;;;;;19.42;91.43;101234.97;5080615;28;20075;-61
2021/08/19 03:31:40;;;;;;;80.22;33.13;;;;;;;19.22;92.66;101238.31;5089585;28;20128;-61
2021/08/19 03:34:06;;;;;;;90.03;33.75;;;;;;;19.12;92.95;101230.66;5090124;27;20179;-59
2021/08/19 03:36:33;;;;;;;78.10;29.27;;;;;;;19.07;92.79;101241.06;5090168;28;20143;-61
2021/08/19 03:39:00;;;;;;;71.07;29.45;;;;;;;19.08;92.55;101239.22;5073037;28;20071;-61
2021/08/19 03:41:26;;;;;;;79.13;29.15;;;;;;;19.08;92.87;101225.94;5080157;28;20423;-61
2021/08/19 03:43:53;;;;;;;70.18;26.73;;;;;;;18.90;92.51;101234.38;5091354;28;20434;-61
2021/08/19 03:46:20;;;;;;;67.80;26.80;;;;;;;19.06;91.52;101236.75;5060987;28;20569;-60
2021/08/19 03:48:47;;;;;;;65.03;25.77;;;;;;;19.05;91.59;101231.63;5097356;28;20051;-60
2021/08/19 03:51:13;;;;;;;61.13;25.73;;;;;;;19.05;91.06;101224.50;5088567;28;20373;-60
2021/08/19 03:53:40;;;;;;;59.42;25.05;;;;;;;19.04;90.70;101227.34;5087786;28;20551;-59
2021/08/19 03:56:07;;;;;;;50.55;20.77;;;;;;;19.05;89.91;101228.97;5087986;28;20242;-58
2021/08/19 03:58:34;;;;;;;48.75;21.42;;;;;;;18.98;90.92;101231.59;5088341;28;20075;-60
2021/08/19 04:01:01;;;;;;;43.25;20.67;;;;;;;19.08;89.33;101225.94;5084386;28;20139;-59
2021/08/19 04:03:29;;;;;;;43.65;19.10;;;;;;;19.13;88.31;101227.00;5085377;28;20511;-61
2021/08/19 04:05:56;;;;;;;42.75;19.50;;;;;;;19.35;86.83;101230.44;5088224;28;20059;-60
2021/08/19 04:08:22;;;;;;;45.83;18.40;;;;;;;19.53;85.47;101239.75;5087917;28;20514;-60
2021/08/19 04:10:49;;;;;;;41.25;17.65;;;;;;;19.59;85.26;101238.16;5094030;28;20531;-60
2021/08/19 04:13:15;;;;;;;43.05;17.27;;;;;;;19.70;83.46;101245.59;5087524;28;20079;-60
2021/08/19 04:15:41;;;;;;;39.45;19.30;;;;;;;19.33;85.38;101239.63;5087789;28;20135;-61
2021/08/19 04:18:10;;;;;;;38.50;16.77;;;;;;;19.80;82.78;101238.09;5092324;28;20077;-60
2021/08/19 04:20:37;;;;;;;;;;;;;;;20.00;82.12;101242.69;5085122;28;20139;-60
2021/08/19 04:23:03;;;;;;;38.03;15.75;;;;;;;20.03;81.36;101236.94;5085656;28;20031;-59
2021/08/19 04:25:30;;;;;;;39.45;18.58;;;;;;;20.28;80.02;101238.06;5079974;28;20083;-60
2021/08/19 04:27:56;;;;;;;35.95;16.92;;;;;;;20.48;78.83;101243.47;5093976;28;20132;-59
2021/08/19 04:30:22;;;;;;;35.65;16.67;;;;;;;20.76;77.63;101242.50;5087670;28;20135;-60
2021/08/19 04:32:49;;;;;;;37.80;17.70;;;;;;;20.30;79.03;101241.34;5101087;28;20162;-60
2021/08/19 04:35:17;;;;;;;43.92;18.50;;;;;;;20.14;80.53;101253.19;5086385;28;20214;-60
2021/08/19 04:37:43;;;;;;;33.67;16.02;;;;;;;20.18;80.44;101250.13;5085348;28;20585;-60
2021/08/19 04:40:10;;;;;;;34.40;15.55;;;;;;;20.00;80.71;101248.00;5094178;28;20079;-60
2021/08/19 04:42:37;;;;;;;36.97;16.60;;;;;;;20.29;79.76;101247.72;5089712;28;20492;-59
2021/08/19 04:45:04;;;;;;;37.58;16.27;;;;;;;20.41;79.89;101249.81;5085805;28;20130;-59
2021/08/19 04:47:31;;;;;;;34.67;16.40;;;;;;;20.41;79.43;101241.81;5083807;28;20155;-60
2021/08/19 04:49:57;;;;;;;41.58;16.88;;;;;;;20.35;78.89;101251.41;5085323;28;20052;-60
2021/08/19 04:52:23;;;;;;;38.03;17.40;;;;;;;20.41;79.36;101231.16;5091854;28;20055;-61
2021/08/19 04:54:50;;;;;;;37.75;17.48;;;;;;;20.50;78.61;101236.09;5083012;28;20159;-61
2021/08/19 04:57:17;;;;;;;39.45;17.25;;;;;;;20.21;80.46;101239.06;5099966;28;20150;-60
2021/08/19 04:59:43;;;;;;;44.35;18.92;;;;;;;20.30;79.84;101240.53;5087416;28;20374;-59
2021/08/19 05:02:10;;;;;;;46.67;19.27;;;;;;;19.81;82.64;101236.25;5089460;28;20443;-59
2021/08/19 05:04:36;;;;;;;45.83;19.77;;;;;;;19.53;84.96;101243.22;5080574;28;20058;-60
2021/08/19 05:07:03;;;;;;;40.85;19.58;;;;;;;19.58;84.96;101239.97;5079196;28;20079;-60
2021/08/19 05:09:30;;;;;;;49.33;19.92;;;;;;;19.56;85.31;101239.34;5094417;28;20047;-60
2021/08/19 05:11:57;;;;;;;44.50;20.67;;;;;;;19.85;84.30;101243.63;5090962;28;20047;-61
2021/08/19 05:14:24;;;;;;;43.70;21.50;;;;;;;19.98;82.96;101245.53;5103017;28;20155;-60
2021/08/19 05:16:50;;;;;;;49.40;21.30;;;;;;;19.57;86.04;101246.31;5083432;28;20223;-60
2021/08/19 05:19:17;;;;;;;57.33;24.80;;;;;;;19.41;87.00;101246.63;5090480;28;20059;-60
2021/08/19 05:21:44;;;;;;;62.42;25.52;;;;;;;19.70;86.05;101250.91;5091617;28;20147;-60
2021/08/19 05:24:11;;;;;;;61.13;25.60;;;;;;;19.82;85.03;101257.34;5088098;28;20050;-60
2021/08/19 05:26:37;;;;;;;62.33;25.33;;;;;;;19.82;85.43;101262.69;5094577;27;20123;-61
2021/08/19 05:29:04;;;;;;;63.47;26.40;;;;;;;19.85;85.87;101259.59;5085682;28;20084;-59
2021/08/19 05:31:30;;;;;;;71.53;29.50;;;;;;;19.90;85.36;101257.19;5097121;28;20094;-61
2021/08/19 05:33:57;;;;;;;86.43;31.13;;;;;;;19.77;86.50;101256.28;5094220;27;20139;-60
2021/08/19 05:36:24;;;;;;;76.25;30.88;;;;;;;20.03;85.29;101255.59;5099407;28;20055;-60
2021/08/19 05:38:50;;;;;;;84.10;33.58;;;;;;;20.12;84.25;101257.06;5086254;28;20555;-58
2021/08/19 05:41:17;;;;;;;75.50;29.70;;;;;;;20.19;83.90;101259.75;5093628;28;20066;-60
2021/08/19 05:43:43;;;;;;;68.95;29.63;;;;;;;20.24;83.87;101265.31;5077095;28;20150;-60
2021/08/19 05:46:10;;;;;;;86.10;32.03;;;;;;;20.09;85.06;101262.78;5098045;28;20138;-62
2021/08/19 05:48:36;;;;;;;85.00;33.50;;;;;;;20.05;85.63;101270.38;5094969;28;20091;-60
2021/08/19 05:51:03;;;;;;;87.63;30.83;;;;;;;20.03;85.36;101277.75;5092138;28;20139;-60
2021/08/19 05:53:30;;;;;;;96.55;34.15;;;;;;;19.85;86.72;101274.75;5091685;28;20128;-59
2021/08/19 05:55:56;;;;;;;84.72;32.47;;;;;;;20.10;85.33;101269.75;5088675;28;20138;-58
2021/08/19 05:58:22;;;;;;;76.00;31.75;;;;;;;20.00;85.98;101266.66;5086935;28;20446;-59
2021/08/19 06:00:49;;;;;;;86.35;31.40;;;;;;;20.02;85.95;101275.25;5069317;28;20174;-62
2021/08/19 06:03:16;;;;;;;81.97;32.33;;;;;;;19.79;87.35;101279.03;5090232;28;20055;-59
2021/08/19 06:05:44;;;;;;;93.50;30.63;;;;;;;19.92;86.38;101283.63;5095468;28;20299;-60
2021/08/19 06:08:11;;;;;;;70.93;29.33;;;;;;;19.93;86.16;101280.75;5085957;28;20075;-59
2021/08/19 06:10:37;;;;;;;82.43;29.15;;;;;;;19.92;85.92;101287.09;5094896;28;20139;-60
2021/08/19 06:13:04;;;;;;;78.82;30.23;;;;;;;19.91;86.42;101287.28;5077566;28;20136;-62
2021/08/19 06:15:30;;;;;;;76.63;30.38;;;;;;;19.71;87.76;101288.00;5099261;28;20465;-60
2021/08/19 06:17:57;;;;;;;85.38;30.92;;;;;;;19.86;86.95;101289.72;5087515;28;20052;-62
2021/08/19 06:20:23;;;;;;;74.32;30.50;;;;;;;19.76;87.73;101284.75;5091889;28;20094;-59
2021/08/19 06:22:54;;;;;;;68.93;27.30;;;;;;;19.70;87.66;101278.34;5091474;28;20175;-60
2021/08/19 06:25:22;;;;;;;84.25;32.20;;;;;;;19.68;88.01;101283.03;5090228;28;20047;-60
2021/08/19 06:27:48;;;;;;;87.65;32.40;;;;;;;19.61;88.33;101282.16;5089427;27;20464;-60
2021/08/19 06:30:15;;;;;;;77.10;30.70;;;;;;;19.52;89.09;101278.84;5087380;28;20149;-60
2021/08/19 06:32:42;;;;;;;91.38;32.83;;;;;;;19.39;90.25;101280.59;5103233;27;20458;-62
2021/08/19 06:35:09;;;;;;;88.70;33.38;;;;;;;19.27;91.41;101278.44;5084470;28;20138;-59
2021/08/19 06:37:36;;;;;;;90.78;32.60;;;;;;;19.14;91.85;101281.00;5069549;28;20054;-62
2021/08/19 06:40:04;;;;;;;75.13;31.38;;;;;;;19.22;91.73;101280.84;5083498;28;20047;-61
2021/08/19 06:42:31;;;;;;;80.95;32.75;;;;;;;19.35;91.04;101274.84;5092689;28;20140;-59
2021/08/19 06:44:58;;;;;;;91.60;34.60;;;;;;;19.15;92.35;101282.63;5093106;28;20071;-59
2021/08/19 06:47:24;;;;;;;77.80;31.15;;;;;;;19.19;92.09;101283.06;5086190;28;20056;-59
2021/08/19 06:49:50;;;;;;;89.18;31.67;;;;;;;19.09;92.78;101280.75;5088975;28;20173;-62
2021/08/19 06:52:17;;;;;;;87.40;32.60;;;;;;;19.17;92.51;101285.94;5078946;28;20463;-60
2021/08/19 06:54:43;;;;;;;86.13;32.38;;;;;;;19.19;92.50;101288.41;5093322;28;20138;-60
2021/08/19 06:57:10;;;;;;;93.10;33.63;;;;;;;19.04;93.09;101288.50;5087957;28;20134;-62
2021/08/19 06:59:36;;;;;;;87.25;33.17;;;;;;;19.10;93.08;101282.41;5090131;28;20084;-61
2021/08/19 07:02:03;;;;;;;78.07;27.65;;;;;;;19.13;92.30;101288.16;5099473;28;20079;-60
2021/08/19 07:04:30;;;;;;;85.32;32.25;;;;;;;19.31;91.41;101282.38;5078442;28;20062;-62
2021/08/19 07:06:56;;;;;;;90.18;33.28;;;;;;;19.24;91.42;101288.66;5090650;28;20052;-60
2021/08/19 07:09:23;;;;;;;83.60;33.25;;;;;;;19.22;91.60;101285.38;5078001;28;20573;-63
2021/08/19 07:11:49;;;;;;;86.75;33.33;;;;;;;19.11;92.40;101281.38;5080869;28;20134;-62
2021/08/19 07:14:16;;;;;;;84.35;33.35;;;;;;;19.08;92.22;101281.78;5082813;28;20479;-63
2021/08/19 07:16:42;;;;;;;81.80;31.52;;;;;;;19.13;92.40;101282.84;5092339;28;20151;-61
2021/08/19 07:19:09;;;;;;;92.38;32.55;;;;;;;19.23;92.11;101289.66;5085620;28;20055;-60
2021/08/19 07:21:35;;;;;;;81.60;31.05;;;;;;;19.27;91.47;101286.44;5092135;28;20113;-63
2021/08/19 07:24:02;;;;;;;85.10;29.95;;;;;;;19.14;91.93;101284.47;5096997;28;20052;-61
2021/08/19 07:26:28;;;;;;;80.07;30.98;;;;;;;19.27;91.48;101283.78;5089110;27;20547;-62
2021/08/19 07:28:57;;;;;;;81.57;32.03;;;;;;;19.22;91.81;101294.16;5087391;28;20841;-62
2021/08/19 07:31:25;;;;;;;80.07;30.33;;;;;;;19.21;91.90;101294.34;5087076;28;20609;-62
2021/08/19 07:33:51;;;;;;;77.93;30.38;;;;;;;19.11;92.00;101298.16;5092477;28;20058;-61
2021/08/19 07:36:18;;;;;;;78.63;31.10;;;;;;;19.10;92.27;101296.50;5091760;28;20078;-62
2021/08/19 07:38:45;;;;;;;85.85;31.88;;;;;;;19.19;91.88;101302.53;5097611;28;20831;-62
2021/08/19 07:41:12;;;;;;;83.80;31.65;;;;;;;19.25;91.74;101307.09;5094450;28;20531;-61
2021/08/19 07:43:38;;;;;;;79.40;32.05;;;;;;;19.34;91.05;101302.44;5081881;28;20079;-62
2021/08/19 07:46:05;;;;;;;82.30;30.58;;;;;;;19.35;91.01;101302.25;5091968;28;20075;-60
2021/08/19 07:48:32;;;;;;;78.85;31.15;;;;;;;19.27;91.04;101306.91;5077874;28;20101;-62
2021/08/19 07:50:58;;;;;;;86.82;32.15;;;;;;;19.46;90.55;101308.03;5095364;28;20754;-62
2021/08/19 07:53:25;;;;;;;78.60;29.65;;;;;;;19.61;89.01;101308.78;5094326;28;20051;-62
2021/08/19 07:55:51;;;;;;;76.18;30.75;;;;;;;19.48;90.17;101312.19;5094492;28;20130;-57
2021/08/19 07:58:18;;;;;;;75.03;30.70;;;;;;;19.47;90.55;101313.19;5094594;28;20039;-61
2021/08/19 08:00:44;;;;;;;86.60;31.75;;;;;;;19.32;91.08;101315.09;5078858;28;21228;-62
2021/08/19 08:03:11;;;;;;;79.50;32.17;;;;;;;19.54;90.72;101308.75;5092970;28;20439;-62
2021/08/19 08:05:38;;;;;;;91.90;32.22;;;;;;;19.50;90.48;101311.97;5092078;28;20622;-63
2021/08/19 08:08:12;;;;;;;77.53;29.50;;;;;;;19.31;91.33;101314.28;5097280;28;20555;-63
2021/08/19 08:10:41;;;;;;;62.42;29.80;;;;;;;19.46;91.08;101308.03;5086890;28;20143;-62
2021/08/19 08:13:10;;;;;;;87.35;30.50;;;;;;;19.39;90.89;101316.00;5085583;28;20143;-62
2021/08/19 08:15:38;;;;;;;80.75;30.40;;;;;;;19.93;87.54;101322.50;5082942;28;20123;-63
2021/08/19 08:18:05;;;;;;;73.30;27.80;;;;;;;19.79;88.56;101321.63;5090106;28;20130;-61
2021/08/19 08:20:33;;;;;;;62.25;28.05;;;;;;;19.68;89.21;101319.47;5094957;28;20054;-62
2021/08/19 08:23:00;;;;;;;66.20;26.47;;;;;;;19.40;91.21;101322.94;5087934;28;20518;-63
2021/08/19 08:25:27;;;;;;;83.57;28.98;;;;;;;19.36;91.34;101317.19;5093565;28;20051;-61
2021/08/19 08:28:32;;;;;;;69.03;28.98;;;;;;;19.22;92.33;101317.28;5078678;28;20090;-63
2021/08/19 08:30:51;;;;;;;66.22;28.63;;;;;;;19.85;88.09;101317.34;5095324;28;20142;-63
2021/08/19 08:33:20;;;;;;;61.08;25.27;;;;;;;20.14;86.22;101314.44;5092712;27;20612;-61
2021/08/19 08:35:47;;;;;;;57.13;25.17;;;;;;;20.12;86.31;101326.31;5097735;28;20458;-62
2021/08/19 08:38:16;;;;;;;60.42;26.40;;;;;;;19.92;87.06;101316.38;5083985;28;20044;-62
2021/08/19 08:40:46;;;;;;;64.75;28.38;;;;;;;19.95;86.78;101325.81;5095554;28;20446;-62
2021/08/19 08:43:14;;;;;;;69.28;27.90;;;;;;;19.78;87.89;101325.31;5089309;28;20139;-62
2021/08/19 08:45:41;;;;;;;75.85;28.33;;;;;;;19.53;89.92;101328.38;5089410;28;20063;-62
2021/08/19 08:48:13;;;;;;;68.53;27.23;;;;;;;19.65;89.18;101322.53;5086998;28;20063;-62
2021/08/19 08:50:41;;;;;;;63.90;27.05;;;;;;;19.58;89.60;101333.09;5094203;28;20551;-62
2021/08/19 08:53:09;;;;;;;61.90;25.85;;;;;;;19.91;88.08;101325.38;5103283;28;20799;-62
2021/08/19 08:55:36;;;;;;;59.17;26.55;;;;;;;19.71;88.27;101325.25;5064400;28;20087;-63
2021/08/19 08:58:03;;;;;;;65.88;26.85;;;;;;;19.78;88.66;101322.66;5088453;28;20518;-61
2021/08/19 09:00:30;;;;;;;63.60;27.58;;;;;;;19.94;87.62;101334.81;5093544;28;20138;-62
2021/08/19 09:03:15;;;;;;;65.97;27.67;;;;;;;19.83;87.76;101328.19;5090722;28;20460;-62
2021/08/19 09:05:44;;;;;;;58.78;27.38;;;;;;;19.78;87.91;101330.63;5097068;28;20052;-60
2021/08/19 09:08:17;;;;;;;;;;;;;;;19.67;89.78;101339.94;5087765;28;20052;-62
2021/08/19 09:10:46;;;;;;;61.92;26.90;;;;;;;19.59;89.54;101345.41;5090767;28;20410;-62
2021/08/19 09:13:14;;;;;;;;;;;;;;;19.42;91.02;101336.88;5085626;28;20091;-62
2021/08/19 09:15:42;;;;;;;63.17;26.70;;;;;;;19.41;90.74;101335.25;5096077;28;19924;-62
2021/08/19 09:18:11;;;;;;;65.50;26.52;;;;;;;19.28;91.66;101337.78;5080555;28;20052;-63
2021/08/19 09:20:39;;;;;;;68.05;27.45;;;;;;;19.17;92.46;101336.47;5096024;28;20372;-62
2021/08/19 09:23:12;;;;;;;61.67;25.90;;;;;;;19.12;92.96;101337.03;5089932;28;20198;-61
2021/08/19 09:25:41;;;;;;;65.63;26.88;;;;;;;19.28;92.95;101340.44;5095436;27;20047;-63
2021/08/19 09:28:15;;;;;;;66.38;28.23;;;;;;;19.33;92.98;101349.50;5072123;28;20486;-62
2021/08/19 09:31:07;;;;;;;62.72;28.00;;;;;;;19.41;92.98;101345.88;5096160;27;20051;-62
2021/08/19 09:33:36;;;;;;;69.18;27.88;;;;;;;19.43;92.69;101343.84;5087740;28;20098;-62
2021/08/19 09:36:07;;;;;;;57.15;27.65;;;;;;;19.63;91.81;101353.81;5076972;28;20099;-63
2021/08/19 09:38:38;;;;;;;64.13;28.40;;;;;;;19.67;91.65;101357.75;5085834;28;20094;-62
2021/08/19 09:41:07;;;;;;;64.38;27.92;;;;;;;19.81;90.02;101353.38;5088089;28;20051;-62
2021/08/19 09:43:45;;;;;;;58.33;25.17;;;;;;;19.68;89.78;101354.06;5088186;28;20048;-62
2021/08/19 09:46:16;;;;;;;69.38;28.65;;;;;;;19.32;92.48;101361.13;5089801;28;20163;-63
2021/08/19 09:48:44;;;;;;;53.13;24.75;;;;;;;19.39;92.31;101357.75;5097679;28;20131;-62
2021/08/19 09:51:22;;;;;;;64.40;28.08;;;;;;;19.29;94.44;101361.53;5089168;28;20054;-62
2021/08/19 09:53:58;;;;;;;66.07;30.15;;;;;;;19.34;95.90;101363.59;5089384;28;20735;-63
2021/08/19 09:56:34;;;;;;;64.60;29.42;;;;;;;19.16;96.08;101362.22;5095557;28;20553;-63
2021/08/19 09:59:20;;;;;;;56.75;25.77;;;;;;;19.26;95.76;101353.09;5088078;28;20131;-63
2021/08/19 10:01:48;;;;;;;69.50;28.35;;;;;;;19.22;96.00;101355.31;5087903;28;20072;-63
2021/08/19 10:04:16;;;;;;;;;;;;;;;19.13;97.04;101359.13;5090458;28;20051;-63
2021/08/19 10:06:43;;;;;;;55.33;26.25;;;;;;;19.20;95.72;101364.50;5095987;28;19963;-62
2021/08/19 10:09:10;;;;;;;58.13;26.60;;;;;;;19.07;97.67;101359.88;5092162;28;20147;-63
2021/08/19 10:11:40;;;;;;;66.55;26.60;;;;;;;19.17;96.36;101365.72;5070759;28;20589;-63
2021/08/19 10:14:11;;;;;;;51.10;22.40;;;;;;;19.06;95.67;101361.72;5092767;28;20051;-63
2021/08/19 10:16:39;;;;;;;56.97;24.70;;;;;;;19.11;97.57;101347.84;5092249;28;20142;-62
2021/08/19 10:19:08;;;;;;;46.77;21.57;;;;;;;19.12;97.44;101341.53;5092899;28;20097;-63
2021/08/19 10:21:37;;;;;;;47.78;21.40;;;;;;;19.12;97.81;101347.66;5076617;28;20399;-62
2021/08/19 10:24:06;;;;;;;43.60;21.27;;;;;;;19.00;96.87;101351.84;5093285;28;20115;-62
2021/08/19 10:26:32;;;;;;;50.67;22.35;;;;;;;19.28;98.23;101348.41;5100871;27;20163;-63
2021/08/19 10:29:00;;;;;;;47.45;22.65;;;;;;;19.22;95.48;101347.34;5094546;28;20039;-62
2021/08/19 10:31:36;;;;;;;47.30;22.00;;;;;;;19.51;94.03;101356.19;5099862;27;20941;-61
2021/08/19 10:34:03;;;;;;;47.72;21.23;;;;;;;19.46;93.13;101347.94;5075130;28;20147;-61
2021/08/19 10:36:29;;;;;;;46.92;20.48;;;;;;;19.45;93.61;101341.81;5081498;28;20569;-59
2021/08/19 10:39:18;;;;;;;42.10;21.75;;;;;;;19.39;93.20;101352.41;5094642;28;20733;-60
2021/08/19 10:41:48;;;;;;;;;;;;;;;19.72;92.42;101348.19;5088976;28;20130;-61
2021/08/19 10:44:33;;;;;;;44.88;21.02;;;;;;;19.71;90.62;101345.69;5093849;28;19953;-61
2021/08/19 10:47:01;;;;;;;41.10;21.35;;;;;;;19.57;90.02;101355.41;5088473;28;20138;-61
2021/08/19 10:49:30;;;;;;;46.35;24.00;;;;;;;19.74;89.68;101353.34;5082644;28;20147;-61
2021/08/19 10:52:08;;;;;;;43.42;21.88;;;;;;;19.87;89.77;101345.41;5084900;28;20130;-60
2021/08/19 10:54:39;;;;;;;43.25;22.63;;;;;;;20.07;88.34;101345.56;5087691;28;20233;-60
2021/08/19 10:57:27;;;;;;;46.58;22.23;;;;;;;20.23;88.09;101346.22;5094158;28;20498;-62
2021/08/19 10:59:57;;;;;;;49.55;22.17;;;;;;;20.33;87.53;101344.84;5069700;28;20052;-62
2021/08/19 11:02:43;;;;;;;42.40;21.42;;;;;;;20.32;87.52;101340.53;5081182;28;20048;-61
2021/08/19 11:05:13;;;;;;;44.60;23.60;;;;;;;20.20;85.70;101349.31;5093543;28;20142;-62
2021/08/19 11:07:50;;;;;;;44.80;22.02;;;;;;;20.18;85.81;101344.16;5098202;28;20058;-62
2021/08/19 11:10:31;;;;;;;40.95;22.13;;;;;;;19.87;87.22;101350.72;5100215;28;20089;-62
2021/08/19 11:13:08;;;;;;;49.15;22.52;;;;;;;19.64;87.98;101352.78;5094065;28;20051;-62
2021/08/19 11:15:45;;;;;;;50.55;24.25;;;;;;;19.63;90.25;101353.81;5097637;28;20055;-61
2021/08/19 11:18:29;;;;;;;52.22;26.58;;;;;;;19.36;89.12;101351.75;5080552;28;20138;-61